createdAt,value
2022-12-14T00:01:40.979Z,100761.03
2022-12-14T00:04:07.879Z,100763.56
2022-12-14T00:06:35.001Z,100765.00
2022-12-14T00:09:04.258Z,100758.47
2022-12-14T00:11:33.428Z,100761.78
2022-12-14T00:14:03.380Z,100752.41
2022-12-14T00:16:33.616Z,100755.81
2022-12-14T00:19:01.939Z,100752.41
2022-12-14T00:21:29.509Z,100743.78
2022-12-14T00:24:00.337Z,100747.91
2022-12-14T00:26:31.184Z,100744.47
2022-12-14T00:29:00.668Z,100741.88
2022-12-14T00:31:28.203Z,100736.66
2022-12-14T00:33:55.416Z,100735.78
2022-12-14T00:36:22.599Z,100732.38
2022-12-14T00:38:49.475Z,100734.91
2022-12-14T00:41:16.360Z,100728.84
2022-12-14T00:43:43.417Z,100728.84
2022-12-14T00:46:10.397Z,100717.72
2022-12-14T00:48:37.459Z,100727.16
2022-12-14T00:51:04.397Z,100730.44
2022-12-14T00:53:31.772Z,100742.13
2022-12-14T00:56:06.591Z,100732.00
2022-12-14T00:58:34.052Z,100732.00
2022-12-14T01:01:14.763Z,100731.03
2022-12-14T01:03:41.963Z,100731.84
2022-12-14T01:06:22.259Z,100738.63
2022-12-14T01:08:49.652Z,100730.88
2022-12-14T01:11:16.563Z,100730.78
2022-12-14T01:13:43.465Z,100724.53
2022-12-14T01:16:14.793Z,100721.13
2022-12-14T01:18:43.616Z,100722.81
2022-12-14T01:21:12.095Z,100725.34
2022-12-14T01:23:39.636Z,100726.16
2022-12-14T01:26:06.778Z,100717.44
2022-12-14T01:28:34.995Z,100725.19
2022-12-14T01:31:21.316Z,100717.53
2022-12-14T01:33:49.084Z,100718.41
2022-12-14T01:36:22.742Z,100714.19
2022-12-14T01:38:55.219Z,100709.06
2022-12-14T01:41:27.768Z,100706.47
2022-12-14T01:44:24.275Z,100705.56
2022-12-14T01:47:11.976Z,100697.03
2022-12-14T01:49:43.257Z,100700.41
2022-12-14T01:52:21.493Z,100691.78
2022-12-14T01:54:59.620Z,100692.53
2022-12-14T01:57:34.190Z,100686.31
2022-12-14T02:00:06.904Z,100690.00
2022-12-14T02:02:37.508Z,100690.00
2022-12-14T02:05:08.174Z,100692.47
2022-12-14T02:07:35.096Z,100688.16
2022-12-14T02:10:05.874Z,100678.66
2022-12-14T02:12:41.261Z,100678.75
2022-12-14T02:15:08.800Z,100688.88
2022-12-14T02:17:35.718Z,100685.38
2022-12-14T02:20:04.356Z,100675.94
2022-12-14T02:23:02.224Z,100683.59
2022-12-14T02:26:15.752Z,100679.16
2022-12-14T02:29:15.280Z,100675.63
2022-12-14T02:32:26.387Z,100685.72
2022-12-14T02:35:19.746Z,100672.66
2022-12-14T02:38:28.172Z,100675.91
2022-12-14T02:41:17.874Z,100676.69
2022-12-14T02:44:18.000Z,100683.47
2022-12-14T02:46:58.469Z,100682.50
2022-12-14T02:49:51.659Z,100679.78
2022-12-14T02:52:53.526Z,100689.88
2022-12-14T02:55:43.102Z,100674.56
2022-12-14T02:58:22.190Z,100669.41
2022-12-14T03:00:49.857Z,100677.38
2022-12-14T03:03:17.326Z,100670.72
2022-12-14T03:05:58.846Z,100665.44
2022-12-14T03:08:28.285Z,100665.72
2022-12-14T03:11:05.408Z,100670.00
2022-12-14T03:13:49.150Z,100659.03
2022-12-14T03:16:28.616Z,100653.47
2022-12-14T03:19:00.692Z,100660.66
2022-12-14T03:21:36.479Z,100661.56
2022-12-14T03:24:10.266Z,100658.13
2022-12-14T03:26:56.518Z,100652.16
2022-12-14T03:29:32.811Z,100647.94
2022-12-14T03:32:06.543Z,100641.69
2022-12-14T03:34:43.380Z,100642.75
2022-12-14T03:37:16.534Z,100635.97
2022-12-14T03:39:45.483Z,100635.00
2022-12-14T03:42:23.697Z,100630.78
2022-12-14T03:45:11.916Z,100636.69
2022-12-14T03:48:15.512Z,100628.94
2022-12-14T03:51:19.626Z,100625.25
2022-12-14T03:54:15.852Z,100635.28
2022-12-14T03:57:07.888Z,100621.69
2022-12-14T04:00:07.463Z,100620.72
2022-12-14T04:02:51.564Z,100616.31
2022-12-14T04:05:48.764Z,100606.94
2022-12-14T04:08:26.974Z,100608.50
2022-12-14T04:11:15.794Z,100606.84
2022-12-14T04:14:08.615Z,100603.31
2022-12-14T04:16:58.688Z,100607.69
2022-12-14T04:19:37.775Z,100600.06
2022-12-14T04:22:14.122Z,100591.63
2022-12-14T04:25:12.989Z,100591.38
2022-12-14T04:27:50.299Z,100590.66
2022-12-14T04:30:17.639Z,100597.44
2022-12-14T04:32:50.382Z,100588.81
2022-12-14T04:35:35.153Z,100587.06
2022-12-14T04:38:13.838Z,100585.16
2022-12-14T04:40:49.425Z,100578.44
2022-12-14T04:43:21.299Z,100577.66
2022-12-14T04:46:00.199Z,100569.91
2022-12-14T04:49:08.784Z,100561.50
2022-12-14T04:51:59.386Z,100565.63
2022-12-14T04:55:05.921Z,100553.34
2022-12-14T04:57:56.619Z,100553.50
2022-12-14T05:00:24.275Z,100566.25
2022-12-14T05:03:26.360Z,100555.00
2022-12-14T05:06:08.034Z,100556.59
2022-12-14T05:09:12.184Z,100553.00
2022-12-14T05:12:11.083Z,100551.16
2022-12-14T05:14:46.824Z,100545.09
2022-12-14T05:17:14.993Z,100543.97
2022-12-14T05:19:49.918Z,100539.75
2022-12-14T05:22:18.052Z,100543.88
2022-12-14T05:24:44.922Z,100531.13
2022-12-14T05:27:11.826Z,100531.13
2022-12-14T05:29:38.709Z,100531.84
2022-12-14T05:32:05.755Z,100525.88
2022-12-14T05:34:32.670Z,100528.31
2022-12-14T05:36:59.567Z,100525.78
2022-12-14T05:39:26.474Z,100526.50
2022-12-14T05:41:53.460Z,100519.66
2022-12-14T05:44:20.934Z,100520.44
2022-12-14T05:46:47.916Z,100515.16
2022-12-14T05:49:14.813Z,100506.75
2022-12-14T05:51:41.713Z,100508.34
2022-12-14T05:54:08.772Z,100500.59
2022-12-14T05:56:35.667Z,100498.03
2022-12-14T05:59:02.670Z,100496.31
2022-12-14T06:01:29.643Z,100503.94
2022-12-14T06:03:56.653Z,100503.94
2022-12-14T06:06:23.657Z,100506.31
2022-12-14T06:08:50.570Z,100495.78
2022-12-14T06:11:20.773Z,100497.72
2022-12-14T06:13:48.379Z,100502.97
2022-12-14T06:16:22.957Z,100501.13
2022-12-14T06:18:53.394Z,100495.88
2022-12-14T06:21:25.515Z,100500.06
2022-12-14T06:23:52.550Z,100495.63
2022-12-14T06:26:19.598Z,100492.19
2022-12-14T06:28:46.756Z,100494.75
2022-12-14T06:31:23.470Z,100494.66
2022-12-14T06:33:51.421Z,100497.09
2022-12-14T06:36:27.391Z,100499.56
2022-12-14T06:38:56.020Z,100503.00
2022-12-14T06:41:24.406Z,100501.25
2022-12-14T06:43:51.987Z,100500.28
2022-12-14T06:46:22.120Z,100502.81
2022-12-14T06:48:52.063Z,100492.53
2022-12-14T06:51:20.002Z,100495.97
2022-12-14T06:53:50.251Z,100490.00
2022-12-14T06:56:18.923Z,100488.97
2022-12-14T06:58:46.328Z,100494.06
2022-12-14T07:01:21.967Z,100490.44
2022-12-14T07:03:55.046Z,100492.81
2022-12-14T07:06:23.234Z,100486.69
2022-12-14T07:08:54.230Z,100488.97
2022-12-14T07:11:22.051Z,100488.88
2022-12-14T07:13:49.098Z,100491.94
2022-12-14T07:16:20.433Z,100485.00
2022-12-14T07:18:48.151Z,100494.31
2022-12-14T07:21:17.364Z,100490.00
2022-12-14T07:23:46.228Z,100498.34
2022-12-14T07:26:18.103Z,100502.38
2022-12-14T07:28:46.289Z,100486.84
2022-12-14T07:31:24.739Z,100489.28
2022-12-14T07:33:57.955Z,100492.63
2022-12-14T07:36:27.620Z,100495.88
2022-12-14T07:38:55.780Z,100495.06
2022-12-14T07:41:30.611Z,100493.22
2022-12-14T07:44:00.223Z,100500.88
2022-12-14T07:46:30.242Z,100494.13
2022-12-14T07:48:58.884Z,100492.34
2022-12-14T07:51:32.433Z,100491.22
2022-12-14T07:54:01.274Z,100491.22
2022-12-14T07:56:32.264Z,100490.69
2022-12-14T07:59:01.022Z,100497.28
2022-12-14T08:01:33.943Z,100487.44
2022-12-14T08:04:30.397Z,100495.06
2022-12-14T08:06:58.713Z,100491.84
2022-12-14T08:09:25.597Z,100487.72
2022-12-14T08:11:52.484Z,100492.81
2022-12-14T08:14:19.765Z,100501.13
2022-12-14T08:16:48.648Z,100494.66
2022-12-14T08:19:16.658Z,100499.91
2022-12-14T08:21:43.588Z,100504.41
2022-12-14T08:24:13.208Z,100485.59
2022-12-14T08:26:40.107Z,100494.66
2022-12-14T08:29:07.289Z,100491.69
2022-12-14T08:31:34.408Z,100487.56
2022-12-14T08:34:02.499Z,100477.53
2022-12-14T08:36:34.344Z,100475.09
2022-12-14T08:39:10.235Z,100482.09
2022-12-14T08:41:37.145Z,100472.88
2022-12-14T08:44:05.514Z,100474.72
2022-12-14T08:46:35.194Z,100477.53
2022-12-14T08:49:02.249Z,100478.56
2022-12-14T08:51:29.604Z,100465.84
2022-12-14T08:53:57.514Z,100470.56
2022-12-14T08:56:28.129Z,100472.56
2022-12-14T08:58:56.475Z,100466.78
2022-12-14T09:01:32.708Z,100457.56
2022-12-14T09:04:07.665Z,100459.56
2022-12-14T09:06:38.294Z,100455.53
2022-12-14T09:09:13.290Z,100462.50
2022-12-14T09:11:42.352Z,100459.34
2022-12-14T09:14:09.236Z,100456.97
2022-12-14T09:16:37.576Z,100465.56
2022-12-14T09:19:04.638Z,100469.25
2022-12-14T09:21:31.726Z,100449.16
2022-12-14T09:23:59.936Z,100453.66
2022-12-14T09:26:27.601Z,100446.16
2022-12-14T09:28:56.623Z,100449.81
2022-12-14T09:31:26.840Z,100448.34
2022-12-14T09:33:54.935Z,100446.81
2022-12-14T09:36:27.467Z,100446.34
2022-12-14T09:38:55.383Z,100443.16
2022-12-14T09:41:34.401Z,100448.41
2022-12-14T09:44:38.545Z,100441.78
2022-12-14T09:47:20.048Z,100444.69
2022-12-14T09:49:49.901Z,100438.84
2022-12-14T09:52:45.471Z,100438.19
2022-12-14T09:55:31.265Z,100437.47
2022-12-14T09:58:16.500Z,100439.34
2022-12-14T10:01:15.163Z,100421.63
2022-12-14T10:04:16.328Z,100421.88
2022-12-14T10:07:19.984Z,100415.38
2022-12-14T10:10:16.137Z,100415.63
2022-12-14T10:13:04.316Z,100406.41
2022-12-14T10:15:54.949Z,100410.00
2022-12-14T10:19:02.155Z,100409.19
2022-12-14T10:21:52.735Z,100401.63
2022-12-14T10:24:30.443Z,100402.50
2022-12-14T10:26:57.579Z,100390.78
2022-12-14T10:29:42.613Z,100395.94
2022-12-14T10:32:38.601Z,100387.28
2022-12-14T10:35:14.961Z,100391.00
2022-12-14T10:37:47.803Z,100386.69
2022-12-14T10:40:49.460Z,100378.22
2022-12-14T10:43:45.943Z,100384.38
2022-12-14T10:46:42.454Z,100385.38
2022-12-14T10:49:40.005Z,100389.03
2022-12-14T10:52:34.046Z,100377.38
2022-12-14T10:55:07.068Z,100370.78
2022-12-14T10:57:33.959Z,100375.25
2022-12-14T11:00:09.195Z,100370.38
2022-12-14T11:02:42.989Z,100365.50
2022-12-14T11:05:25.022Z,100367.09
2022-12-14T11:07:51.906Z,100356.16
2022-12-14T11:10:24.730Z,100365.91
2022-12-14T11:13:18.021Z,100356.72
2022-12-14T11:15:48.522Z,100349.28
2022-12-14T11:18:15.412Z,100357.84
2022-12-14T11:21:01.881Z,100352.91
2022-12-14T11:23:35.882Z,100338.44
2022-12-14T11:26:07.072Z,100347.13
2022-12-14T11:28:40.135Z,100331.06
2022-12-14T11:31:12.422Z,100337.13
2022-12-14T11:33:50.591Z,100327.09
2022-12-14T11:36:36.080Z,100316.66
2022-12-14T11:39:15.096Z,100320.38
2022-12-14T11:41:48.951Z,100313.34
2022-12-14T11:44:15.748Z,100327.53
2022-12-14T11:47:02.106Z,100320.78
2022-12-14T11:49:45.111Z,100326.09
2022-12-14T11:52:22.215Z,100322.88
2022-12-14T11:54:55.215Z,100313.66
2022-12-14T11:57:28.492Z,100302.63
2022-12-14T12:00:02.126Z,100303.59
2022-12-14T12:02:40.018Z,100304.78
2022-12-14T12:05:20.030Z,100307.53
2022-12-14T12:07:49.843Z,100300.00
2022-12-14T12:10:22.993Z,100290.72
2022-12-14T12:13:00.362Z,100300.19
2022-12-14T12:15:37.402Z,100299.50
2022-12-14T12:18:46.292Z,100293.72
2022-12-14T12:21:30.191Z,100294.78
2022-12-14T12:24:21.816Z,100290.66
2022-12-14T12:26:58.660Z,100282.88
2022-12-14T12:29:48.458Z,100283.94
2022-12-14T12:32:28.585Z,100263.16
2022-12-14T12:35:13.407Z,100276.25
2022-12-14T12:37:57.613Z,100273.69
2022-12-14T12:40:54.940Z,100273.78
2022-12-14T12:43:39.092Z,100274.72
2022-12-14T12:46:16.704Z,100271.44
2022-12-14T12:48:53.445Z,100273.34
2022-12-14T12:51:28.799Z,100276.09
2022-12-14T12:54:15.830Z,100272.81
2022-12-14T12:56:48.457Z,100258.72
2022-12-14T12:59:35.540Z,100257.53
2022-12-14T13:02:30.023Z,100270.41
2022-12-14T13:05:06.998Z,100267.22
2022-12-14T13:07:53.980Z,100258.69
2022-12-14T13:10:30.860Z,100269.91
2022-12-14T13:13:07.144Z,100267.34
2022-12-14T13:15:52.608Z,100248.38
2022-12-14T13:18:57.377Z,100259.78
2022-12-14T13:21:30.826Z,100281.75
2022-12-14T13:23:58.128Z,100265.72
2022-12-14T13:27:29.976Z,100279.34
2022-12-14T13:30:45.036Z,100265.53
2022-12-14T13:33:39.687Z,100255.19
2022-12-14T13:36:49.810Z,100257.53
2022-12-14T13:39:57.234Z,100241.78
2022-12-14T13:43:13.091Z,100249.56
2022-12-14T13:45:43.925Z,100254.59
2022-12-14T13:48:28.105Z,100245.19
2022-12-14T13:51:02.028Z,100253.63
2022-12-14T13:53:41.330Z,100237.88
2022-12-14T13:56:09.085Z,100248.31
2022-12-14T13:58:44.619Z,100253.38
2022-12-14T14:01:48.399Z,100246.47
2022-12-14T14:04:29.687Z,100252.38
2022-12-14T14:07:26.693Z,100253.03
2022-12-14T14:09:59.524Z,100253.03
2022-12-14T14:12:37.043Z,100263.97
2022-12-14T14:15:33.014Z,100257.16
2022-12-14T14:18:14.943Z,100264.75
2022-12-14T14:20:58.625Z,100257.72
2022-12-14T14:23:31.853Z,100258.72
2022-12-14T14:26:22.661Z,100253.31
2022-12-14T14:29:23.470Z,100251.66
2022-12-14T14:31:56.390Z,100255.88
2022-12-14T14:34:43.785Z,100256.59
2022-12-14T14:37:19.782Z,100252.16
2022-12-14T14:40:16.733Z,100249.47
2022-12-14T14:43:18.058Z,100237.28
2022-12-14T14:45:52.710Z,100242.41
2022-12-14T14:48:38.865Z,100237.13
2022-12-14T14:51:34.531Z,100241.28
2022-12-14T14:54:37.601Z,100236.84
2022-12-14T14:57:03.223Z,100226.50
2022-12-14T14:59:51.128Z,100234.03
2022-12-14T15:02:40.423Z,100222.00
2022-12-14T15:08:04.305Z,100226.09
2022-12-14T15:10:44.606Z,100230.25
2022-12-14T15:13:26.198Z,100208.41
2022-12-14T15:15:56.303Z,100230.94
2022-12-14T15:18:26.711Z,100226.63
2022-12-14T15:21:06.800Z,100224.81
2022-12-14T15:23:37.682Z,100222.22
2022-12-14T15:26:16.901Z,100222.09
2022-12-14T15:28:55.059Z,100213.41
2022-12-14T15:31:41.921Z,100200.97
2022-12-14T15:34:18.173Z,100200.56
2022-12-14T15:36:45.588Z,100220.66
2022-12-14T15:39:43.502Z,100205.69
2022-12-14T15:42:15.442Z,100220.47
2022-12-14T15:44:54.894Z,100215.16
2022-12-14T15:47:30.481Z,100221.00
2022-12-14T15:50:22.495Z,100226.78
2022-12-14T15:52:51.201Z,100213.88
2022-12-14T15:55:35.609Z,100217.91
2022-12-14T15:58:20.731Z,100213.59
2022-12-14T16:00:51.716Z,100211.75
2022-12-14T16:03:32.705Z,100209.94
2022-12-14T16:06:00.967Z,100211.59
2022-12-14T16:08:30.904Z,100202.97
2022-12-14T16:11:01.548Z,100207.06
2022-12-14T16:13:35.044Z,100206.06
2022-12-14T16:16:11.686Z,100217.00
2022-12-14T16:18:50.738Z,100214.22
2022-12-14T16:21:34.388Z,100213.88
2022-12-14T16:24:22.370Z,100191.38
2022-12-14T16:27:00.218Z,100200.63
2022-12-14T16:29:32.775Z,100199.59
2022-12-14T16:32:12.939Z,100194.16
2022-12-14T16:34:47.542Z,100195.69
2022-12-14T16:37:33.931Z,100186.00
2022-12-14T16:40:01.246Z,100196.34
2022-12-14T16:42:31.577Z,100193.56
2022-12-14T16:44:58.453Z,100190.78
2022-12-14T16:47:34.393Z,100203.41
2022-12-14T16:50:01.268Z,100192.78
2022-12-14T16:52:36.735Z,100207.19
2022-12-14T16:55:19.355Z,100209.47
2022-12-14T16:57:49.163Z,100210.06
2022-12-14T17:00:27.721Z,100215.88
2022-12-14T17:03:20.717Z,100213.88
2022-12-14T17:05:54.123Z,100202.22
2022-12-14T17:08:21.082Z,100206.66
2022-12-14T17:10:48.238Z,100210.66
2022-12-14T17:13:15.161Z,100189.44
2022-12-14T17:16:03.838Z,100213.63
2022-12-14T17:18:35.397Z,100216.03
2022-12-14T17:21:02.559Z,100225.84
2022-12-14T17:23:29.890Z,100227.41
2022-12-14T17:25:57.487Z,100215.25
2022-12-14T17:28:31.058Z,100214.88
2022-12-14T17:31:01.580Z,100215.19
2022-12-14T17:33:30.497Z,100216.78
2022-12-14T17:35:57.768Z,100213.94
2022-12-14T17:38:25.807Z,100219.66
2022-12-14T17:40:53.907Z,100227.78
2022-12-14T17:43:26.727Z,100218.00
2022-12-14T17:45:54.554Z,100213.44
2022-12-14T17:48:21.512Z,100209.88
2022-12-14T17:50:50.004Z,100208.75
2022-12-14T17:53:25.160Z,100206.06
2022-12-14T17:55:52.078Z,100204.13
2022-12-14T17:58:19.028Z,100202.22
2022-12-14T18:01:00.910Z,100198.53
2022-12-14T18:03:36.505Z,100197.50
2022-12-14T18:06:04.653Z,100202.44
2022-12-14T18:08:31.571Z,100204.75
2022-12-14T18:11:02.600Z,100217.38
2022-12-14T18:13:31.695Z,100212.97
2022-12-14T18:16:00.517Z,100210.19
2022-12-14T18:18:29.427Z,100205.66
2022-12-14T18:21:02.775Z,100203.81
2022-12-14T18:23:31.700Z,100201.91
2022-12-14T18:26:00.031Z,100206.03
2022-12-14T18:28:27.344Z,100201.72
2022-12-14T18:31:03.747Z,100206.66
2022-12-14T18:33:33.246Z,100209.13
2022-12-14T18:36:00.862Z,100214.22
2022-12-14T18:38:27.840Z,100215.78
2022-12-14T18:40:58.473Z,100212.13
2022-12-14T18:43:28.091Z,100210.34
2022-12-14T18:45:56.345Z,100215.28
2022-12-14T18:48:25.098Z,100209.22
2022-12-14T18:50:54.077Z,100216.78
2022-12-14T18:53:23.486Z,100208.97
2022-12-14T18:55:50.521Z,100204.41
2022-12-14T18:58:27.525Z,100208.53
2022-12-14T19:00:57.839Z,100207.59
2022-12-14T19:03:26.345Z,100211.72
2022-12-14T19:06:34.392Z,100217.50
2022-12-14T19:08:51.224Z,100213.03
2022-12-14T19:11:34.315Z,100211.09
2022-12-14T19:14:02.074Z,100210.94
2022-12-14T19:16:29.516Z,100208.22
2022-12-14T19:18:56.853Z,100214.81
2022-12-14T19:21:25.727Z,100180.88
2022-12-14T19:23:52.675Z,100203.31
2022-12-14T19:26:19.557Z,100208.56
2022-12-14T19:28:46.443Z,100204.09
2022-12-14T19:31:13.425Z,100200.50
2022-12-14T19:33:40.372Z,100208.50
2022-12-14T19:36:08.623Z,100213.13
2022-12-14T19:38:36.897Z,100211.34
2022-12-14T19:41:11.101Z,100214.59
2022-12-14T19:43:39.372Z,100205.34
2022-12-14T19:46:08.145Z,100197.88
2022-12-14T19:48:35.390Z,100213.81
2022-12-14T19:51:07.880Z,100222.72
2022-12-14T19:53:35.751Z,100208.19
2022-12-14T19:56:03.741Z,100217.66
2022-12-14T19:58:30.686Z,100211.53
2022-12-14T20:00:57.947Z,100220.88
2022-12-14T20:03:25.330Z,100225.00
2022-12-14T20:05:54.888Z,100225.78
2022-12-14T20:08:22.895Z,100207.47
2022-12-14T20:10:50.337Z,100213.16
2022-12-14T20:13:17.251Z,100220.44
2022-12-14T20:15:53.697Z,100221.13
2022-12-14T20:18:23.080Z,100232.94
2022-12-14T20:20:52.130Z,100224.38
2022-12-14T20:23:21.544Z,100228.47
2022-12-14T20:25:49.482Z,100218.16
2022-12-14T20:28:16.426Z,100212.50
2022-12-14T20:30:47.741Z,100226.28
2022-12-14T20:33:14.697Z,100216.19
2022-12-14T20:35:41.621Z,100234.59
2022-12-14T20:38:08.485Z,100233.78
2022-12-14T20:40:38.859Z,100239.28
2022-12-14T20:43:07.104Z,100236.16
2022-12-14T20:45:42.338Z,100240.94
2022-12-14T20:48:09.335Z,100230.09
2022-12-14T20:50:42.215Z,100246.13
2022-12-14T20:53:09.274Z,100237.44
2022-12-14T20:55:36.422Z,100236.66
2022-12-14T20:58:03.367Z,100223.59
2022-12-14T21:00:30.383Z,100226.22
2022-12-14T21:02:57.504Z,100231.19
2022-12-14T21:05:24.822Z,100232.75
2022-12-14T21:07:52.018Z,100229.34
2022-12-14T21:10:19.026Z,100230.91
2022-12-14T21:12:48.736Z,100233.38
2022-12-14T21:15:15.697Z,100239.91
2022-12-14T21:17:42.584Z,100241.56
2022-12-14T21:20:11.413Z,100225.88
2022-12-14T21:22:38.601Z,100248.91
2022-12-14T21:25:07.167Z,100251.44
2022-12-14T21:27:40.706Z,100252.06
2022-12-14T21:30:11.210Z,100255.28
2022-12-14T21:32:39.019Z,100253.44
2022-12-14T21:35:06.688Z,100255.00
2022-12-14T21:37:33.602Z,100265.91
2022-12-14T21:40:03.267Z,100272.44
2022-12-14T21:42:30.128Z,100263.88
2022-12-14T21:44:57.646Z,100263.88
2022-12-14T21:47:29.868Z,100257.75
2022-12-14T21:49:57.279Z,100254.22
2022-12-14T21:52:26.728Z,100254.91
2022-12-14T21:54:53.616Z,100256.38
2022-12-14T21:57:42.605Z,100256.09
2022-12-14T22:00:11.104Z,100252.41
2022-12-14T22:02:41.849Z,100245.00
2022-12-14T22:05:10.236Z,100253.78
2022-12-14T22:07:37.127Z,100251.00
2022-12-14T22:10:04.734Z,100250.94
2022-12-14T22:12:31.827Z,100259.22
2022-12-14T22:14:58.702Z,100254.03
2022-12-14T22:17:25.586Z,100262.34
2022-12-14T22:19:54.289Z,100251.91
2022-12-14T22:22:21.245Z,100248.00
2022-12-14T22:24:49.700Z,100257.47
2022-12-14T22:27:16.863Z,100263.22
2022-12-14T22:29:43.731Z,100265.56
2022-12-14T22:32:14.682Z,100259.31
2022-12-14T22:34:41.961Z,100256.38
2022-12-14T22:37:09.029Z,100258.22
2022-12-14T22:39:36.099Z,100260.75
2022-12-14T22:42:03.010Z,100265.63
2022-12-14T22:44:29.975Z,100261.81
2022-12-14T22:46:57.713Z,100262.72
2022-12-14T22:49:24.662Z,100267.56
2022-12-14T22:51:51.638Z,100270.09
2022-12-14T22:54:24.688Z,100268.22
2022-12-14T22:57:04.730Z,100263.97
2022-12-14T22:59:58.548Z,100260.25
2022-12-14T23:02:25.975Z,100261.81
2022-12-14T23:04:53.105Z,100259.94
2022-12-14T23:07:20.023Z,100262.28
2022-12-14T23:10:05.287Z,100268.09
2022-12-14T23:12:50.820Z,100268.69
2022-12-14T23:15:36.261Z,100264.19
2022-12-14T23:18:26.550Z,100264.88
2022-12-14T23:21:13.054Z,100261.47
2022-12-14T23:24:01.419Z,100256.69
2022-12-14T23:26:47.501Z,100260.19
2022-12-14T23:29:33.446Z,100251.63
2022-12-14T23:32:18.726Z,100246.25
2022-12-14T23:35:04.312Z,100257.81
2022-12-14T23:37:49.781Z,100262.69
2022-12-14T23:40:35.504Z,100255.25
2022-12-14T23:43:33.796Z,100256.91
2022-12-14T23:46:20.818Z,100252.59
2022-12-14T23:49:10.534Z,100252.41
2022-12-14T23:52:00.980Z,100248.00
2022-12-14T23:54:46.138Z,100241.22
2022-12-14T23:57:31.772Z,100239.22
